Time;durP1;ratioP1;P1;durP2;ratioP2;P2;SDS_P1;SDS_P2;PMS_P1;PMS_P2;Temp;Humidity;BMP_temperature;BMP_pressure;BME280_temperature;BME280_humidity;BME280_pressure;Samples;Min_cycle;Max_cycle;Signal;HPM_P1;HPM_P2
2021/04/10 00:00:28;;;;;;;27.40;15.33;;;;;;;3.38;55.52;98869.27;2217405;80;21126;-78
2021/04/10 00:03:31;;;;;;;23.80;13.90;;;;;;;3.39;55.50;98871.03;2217322;80;21158;-79
2021/04/10 00:06:32;;;;;;;30.00;16.47;;;;;;;3.40;55.67;98867.63;2217371;80;21550;-78
2021/04/10 00:09:33;;;;;;;44.67;24.33;;;;;;;3.42;55.61;98863.41;2217388;80;21137;-78
2021/04/10 00:12:34;;;;;;;29.17;16.40;;;;;;;3.39;55.81;98868.45;2217602;80;21272;-79
2021/04/10 00:15:35;;;;;;;28.60;14.47;;;;;;;3.24;56.41;98863.96;2217574;80;21075;-79
2021/04/10 00:18:36;;;;;;;25.00;14.10;;;;;;;3.12;56.92;98863.05;2217574;80;21244;-79
2021/04/10 00:21:37;;;;;;;27.67;14.87;;;;;;;3.00;57.42;98860.84;2217858;80;21170;-79
2021/04/10 00:24:38;;;;;;;27.60;14.13;;;;;;;2.89;57.67;98862.09;2217535;80;21268;-79
2021/04/10 00:27:39;;;;;;;23.50;13.63;;;;;;;2.83;58.05;98858.85;2217968;80;21357;-79
2021/04/10 00:30:40;;;;;;;47.43;14.77;;;;;;;2.76;58.21;98860.70;2217815;80;21102;-79
2021/04/10 00:33:41;;;;;;;28.70;13.57;;;;;;;2.70;58.37;98856.98;2217435;80;21261;-79
2021/04/10 00:36:42;;;;;;;27.30;12.83;;;;;;;2.65;58.62;98855.49;2217523;80;21134;-78
2021/04/10 00:39:43;;;;;;;24.63;14.47;;;;;;;2.60;58.88;98853.13;2217344;80;21157;-78
2021/04/10 00:42:44;;;;;;;24.53;13.53;;;;;;;2.58;58.68;98849.57;2217401;80;21245;-78
2021/04/10 00:45:45;;;;;;;30.03;14.00;;;;;;;2.58;58.73;98849.98;2217316;80;21530;-80
2021/04/10 00:48:46;;;;;;;31.60;14.47;;;;;;;2.58;58.82;98849.98;2217440;80;21249;-78
2021/04/10 00:51:48;;;;;;;26.93;13.77;;;;;;;2.53;58.92;98853.64;2217712;80;21165;-78
2021/04/10 00:54:49;;;;;;;30.90;15.57;;;;;;;2.53;59.10;98851.06;2217501;80;21115;-79
2021/04/10 00:57:50;;;;;;;27.10;14.97;;;;;;;2.51;59.16;98852.29;2216830;80;21251;-77
2021/04/10 01:00:51;;;;;;;37.13;15.30;;;;;;;2.52;59.21;98863.06;2210177;80;21130;-78
2021/04/10 01:03:52;;;;;;;30.20;14.47;;;;;;;2.52;59.53;98861.78;2210326;80;21177;-78
2021/04/10 01:06:53;;;;;;;31.23;15.10;;;;;;;2.50;59.51;98856.97;2210071;80;21148;-78
2021/04/10 01:09:54;;;;;;;28.17;13.70;;;;;;;2.53;59.54;98854.94;2210206;80;21245;-79
2021/04/10 01:12:55;;;;;;;24.37;13.57;;;;;;;2.53;59.51;98854.94;2210573;80;21253;-79
2021/04/10 01:15:56;;;;;;;25.07;14.00;;;;;;;2.51;59.66;98856.16;2210237;80;21419;-79
2021/04/10 01:18:57;;;;;;;28.80;13.77;;;;;;;2.50;59.64;98845.78;2210573;80;21150;-78
2021/04/10 01:21:58;;;;;;;29.97;15.10;;;;;;;2.41;59.89;98856.56;2210403;80;21304;-79
2021/04/10 01:24:59;;;;;;;27.43;14.27;;;;;;;2.42;60.07;98853.17;2210516;81;21142;-79
2021/04/10 01:28:00;;;;;;;26.27;14.17;;;;;;;2.42;60.28;98854.88;2210076;81;21248;-78
2021/04/10 01:31:01;;;;;;;21.70;12.73;;;;;;;2.35;60.46;98856.70;2210466;80;21786;-79
2021/04/10 01:34:02;;;;;;;31.50;15.33;;;;;;;2.39;60.78;98849.18;2210582;80;21141;-79
2021/04/10 01:37:03;;;;;;;22.90;14.03;;;;;;;2.36;60.49;98854.20;2210298;80;21091;-79
2021/04/10 01:40:04;;;;;;;24.67;14.50;;;;;;;2.38;60.62;98848.70;2210271;80;21233;-78
2021/04/10 01:43:05;;;;;;;27.40;13.33;;;;;;;2.41;60.89;98851.41;2210588;80;21307;-79
2021/04/10 01:46:06;;;;;;;29.20;15.47;;;;;;;2.50;60.69;98845.38;2210455;80;21103;-79
2021/04/10 01:49:08;;;;;;;29.97;15.00;;;;;;;2.58;60.67;98845.70;2210376;80;21253;-79
2021/04/10 01:52:09;;;;;;;23.07;13.50;;;;;;;2.65;60.46;98844.30;2210280;80;21276;-79
2021/04/10 01:55:10;;;;;;;34.63;15.90;;;;;;;2.64;60.50;98843.42;2210372;80;21257;-78
2021/04/10 01:58:11;;;;;;;25.63;13.83;;;;;;;2.68;60.63;98840.56;2210956;80;21126;-78
2021/04/10 02:01:12;;;;;;;28.80;13.57;;;;;;;2.73;60.61;98841.64;2217813;80;21395;-79
2021/04/10 02:04:16;;;;;;;26.73;14.18;;;;;;;2.80;60.60;98835.52;2217566;80;21288;-78
2021/04/10 02:07:17;;;;;;;31.50;15.13;;;;;;;2.78;60.62;98832.41;2217267;80;21133;-78
2021/04/10 02:10:18;;;;;;;22.37;13.87;;;;;;;2.78;60.59;98828.55;2217449;80;21273;-79
2021/04/10 02:13:19;;;;;;;31.97;16.00;;;;;;;2.79;60.49;98829.89;2217889;80;21141;-79
2021/04/10 02:16:20;;;;;;;27.20;14.77;;;;;;;2.87;60.38;98826.34;2217262;80;21263;-77
2021/04/10 02:19:21;;;;;;;29.10;15.67;;;;;;;2.91;60.23;98832.10;2217485;80;21420;-78
2021/04/10 02:22:23;;;;;;;29.80;15.93;;;;;;;2.96;60.05;98822.86;2217391;80;21272;-78
2021/04/10 02:25:25;;;;;;;29.17;14.00;;;;;;;3.01;59.76;98824.34;2217496;80;21142;-78
2021/04/10 02:28:29;;;;;;;27.37;14.43;;;;;;;3.00;59.79;98827.33;2217350;80;21280;-78
2021/04/10 02:31:30;;;;;;;26.67;14.83;;;;;;;3.00;59.75;98822.58;2217535;80;21278;-78
2021/04/10 02:34:31;;;;;;;35.53;15.13;;;;;;;2.98;59.76;98825.09;2217610;80;21566;-78
2021/04/10 02:37:32;;;;;;;26.07;14.97;;;;;;;3.00;59.52;98826.03;2217210;80;21240;-78
2021/04/10 02:40:34;;;;;;;323.80;33.07;;;;;;;3.02;59.61;98823.11;2217445;80;21154;-78
2021/04/10 02:43:35;;;;;;;33.93;14.87;;;;;;;2.94;59.75;98823.61;2217607;80;21158;-78
2021/04/10 02:46:36;;;;;;;23.77;13.93;;;;;;;2.90;59.86;98821.72;2217121;80;21535;-78
2021/04/10 02:49:37;;;;;;;24.03;14.37;;;;;;;2.85;59.85;98824.11;2217272;80;21261;-77
2021/04/10 02:52:38;;;;;;;28.07;15.80;;;;;;;2.80;59.95;98820.46;2217356;80;21181;-79
2021/04/10 02:55:39;;;;;;;28.17;15.13;;;;;;;2.76;59.94;98817.28;2217832;80;21118;-78
2021/04/10 02:58:40;;;;;;;26.33;13.87;;;;;;;2.75;60.01;98820.27;2217321;80;21154;-78
2021/04/10 03:01:41;;;;;;;27.30;14.33;;;;;;;2.79;59.90;98822.16;2217461;80;21134;-79
2021/04/10 03:04:42;;;;;;;26.13;13.53;;;;;;;2.75;59.95;98816.41;2217423;80;21424;-78
2021/04/10 03:07:43;;;;;;;27.40;14.90;;;;;;;2.72;60.03;98824.42;2217137;80;21236;-79
2021/04/10 03:10:44;;;;;;;28.50;15.83;;;;;;;2.64;60.34;98824.09;2217492;80;21260;-78
2021/04/10 03:13:45;;;;;;;91.07;19.17;;;;;;;2.58;60.40;98825.50;2217461;80;21311;-79
2021/04/10 03:16:46;;;;;;;40.90;15.20;;;;;;;2.56;60.61;98820.28;2217356;80;21106;-78
2021/04/10 03:19:48;;;;;;;25.83;13.67;;;;;;;2.57;60.49;98822.04;2217284;80;21256;-78
2021/04/10 03:22:49;;;;;;;28.80;14.10;;;;;;;2.56;60.50;98807.39;2217666;80;21296;-79
2021/04/10 03:25:50;;;;;;;24.47;14.67;;;;;;;2.54;60.34;98810.31;2217488;80;21133;-78
2021/04/10 03:28:51;;;;;;;30.87;14.00;;;;;;;2.50;60.40;98806.72;2217387;80;21264;-78
2021/04/10 03:31:52;;;;;;;613.37;61.10;;;;;;;2.46;60.59;98809.11;2217607;80;21134;-79
2021/04/10 03:34:53;;;;;;;95.83;16.40;;;;;;;2.39;60.79;98806.67;2217895;80;21150;-78
2021/04/10 03:37:54;;;;;;;23.87;13.33;;;;;;;2.35;60.94;98804.78;2217444;80;21137;-79
2021/04/10 03:40:55;;;;;;;23.63;13.33;;;;;;;2.27;60.92;98813.87;2217493;80;21562;-78
2021/04/10 03:43:58;;;;;;;48.63;15.33;;;;;;;2.21;61.08;98816.17;2217703;80;21168;-78
2021/04/10 03:46:59;;;;;;;29.63;13.63;;;;;;;2.17;61.18;98825.46;2218431;80;21154;-78
2021/04/10 03:50:00;;;;;;;29.67;14.20;;;;;;;2.11;61.28;98817.88;2217473;80;21535;-78
2021/04/10 03:53:01;;;;;;;25.53;13.70;;;;;;;2.02;61.35;98820.03;2217430;80;21288;-78
2021/04/10 03:56:02;;;;;;;26.07;14.00;;;;;;;2.00;61.59;98826.81;2217448;80;21122;-78
2021/04/10 03:59:03;;;;;;;23.83;14.27;;;;;;;2.01;61.43;98828.58;2215690;80;21272;-78
2021/04/10 04:02:04;;;;;;;24.27;13.83;;;;;;;1.99;61.42;98825.93;2210265;80;21122;-78
2021/04/10 04:05:05;;;;;;;25.13;14.07;;;;;;;1.99;61.41;98825.93;2210366;80;21280;-78
2021/04/10 04:08:06;;;;;;;24.60;13.27;;;;;;;2.02;61.41;98827.76;2210163;80;21407;-79
2021/04/10 04:11:07;;;;;;;34.37;14.60;;;;;;;2.05;61.37;98836.91;2210319;80;21141;-78
2021/04/10 04:14:08;;;;;;;26.07;14.40;;;;;;;2.13;61.39;98831.70;2210422;80;21554;-79
2021/04/10 04:17:10;;;;;;;25.20;14.10;;;;;;;2.08;61.20;98835.76;2210627;80;21142;-78
2021/04/10 04:20:11;;;;;;;23.00;13.63;;;;;;;2.10;61.22;98835.42;2210187;80;21440;-79
2021/04/10 04:23:12;;;;;;;22.27;13.77;;;;;;;2.20;61.07;98831.16;2210437;80;21126;-78
2021/04/10 04:26:13;;;;;;;23.37;14.50;;;;;;;2.22;60.94;98832.98;2210064;80;21196;-78
2021/04/10 04:29:14;;;;;;;26.27;13.37;;;;;;;2.33;60.94;98839.89;2210181;80;21563;-79
2021/04/10 04:32:15;;;;;;;28.50;15.13;;;;;;;2.51;60.81;98839.81;2210166;80;21261;-78
2021/04/10 04:35:16;;;;;;;25.63;14.77;;;;;;;2.59;60.56;98833.70;2210376;80;21125;-78
2021/04/10 04:38:17;;;;;;;33.27;16.03;;;;;;;2.76;60.41;98836.21;2188389;81;21142;-79
2021/04/10 04:41:20;;;;;;;25.80;15.50;;;;;;;2.88;60.13;98831.56;2210509;80;21141;-78
2021/04/10 04:44:21;;;;;;;27.43;14.90;;;;;;;3.05;59.98;98836.54;2210114;80;21174;-77
2021/04/10 04:47:22;;;;;;;22.77;13.80;;;;;;;3.22;59.69;98825.61;2210268;81;21276;-78
2021/04/10 04:50:23;;;;;;;25.33;15.27;;;;;;;3.39;59.67;98828.05;2210168;80;21418;-78
2021/04/10 04:53:24;;;;;;;23.00;14.00;;;;;;;3.59;59.23;98843.06;2210065;80;21715;-77
2021/04/10 04:56:26;;;;;;;26.53;14.40;;;;;;;3.80;58.93;98844.30;2209972;80;21249;-77
2021/04/10 04:59:27;;;;;;;24.70;12.60;;;;;;;4.06;58.63;98849.16;2210153;80;21268;-80
2021/04/10 05:02:29;;;;;;;26.03;13.80;;;;;;;4.37;62.27;98851.19;2210650;80;21249;-80
2021/04/10 05:05:30;;;;;;;20.60;13.37;;;;;;;5.41;58.15;98846.60;2210755;81;21289;-79
2021/04/10 05:08:34;;;;;;;25.93;13.07;;;;;;;5.56;56.19;98845.80;2210927;80;21256;-80
2021/04/10 05:11:35;;;;;;;18.90;13.03;;;;;;;5.67;56.14;98848.30;2210650;80;21157;-79
2021/04/10 05:14:36;;;;;;;19.17;13.50;;;;;;;5.86;55.15;98845.86;2210518;80;21142;-80
2021/04/10 05:17:37;;;;;;;17.90;12.13;;;;;;;6.16;54.96;98852.44;2210864;80;21408;-80
2021/04/10 05:20:38;;;;;;;20.97;12.27;;;;;;;6.42;54.33;98840.64;2210997;80;21249;-80
2021/04/10 05:23:39;;;;;;;24.30;12.80;;;;;;;6.62;53.75;98844.66;2210417;80;21190;-80
2021/04/10 05:26:40;;;;;;;19.37;12.73;;;;;;;6.79;53.20;98841.22;2210828;80;21229;-79
2021/04/10 05:29:41;;;;;;;20.93;12.20;;;;;;;6.86;52.92;98846.61;2210691;80;21433;-80
2021/04/10 05:32:42;;;;;;;17.90;12.07;;;;;;;6.92;52.46;98846.77;2210617;80;21427;-79
2021/04/10 05:35:43;;;;;;;141.80;20.70;;;;;;;7.05;52.39;98854.91;2210737;80;21181;-80
2021/04/10 05:38:45;;;;;;;46.50;13.87;;;;;;;7.05;52.39;98854.91;2210525;80;21126;-80
2021/04/10 05:41:46;;;;;;;20.27;11.93;;;;;;;7.18;51.61;98851.79;2210263;80;21257;-79
2021/04/10 05:44:47;;;;;;;17.60;11.27;;;;;;;7.30;51.90;98859.46;2210491;80;21162;-81
2021/04/10 05:47:48;;;;;;;20.37;11.13;;;;;;;7.42;51.39;98854.98;2210809;80;21166;-79
2021/04/10 05:50:49;;;;;;;18.60;11.60;;;;;;;7.53;50.94;98863.92;2210727;80;21436;-80
2021/04/10 05:53:50;;;;;;;20.27;11.83;;;;;;;7.71;50.96;98863.89;2210831;80;21114;-79
2021/04/10 05:56:51;;;;;;;26.20;11.70;;;;;;;7.85;50.65;98866.42;2210604;80;21257;-80
2021/04/10 05:59:52;;;;;;;18.00;11.03;;;;;;;8.00;50.27;98865.47;2213239;80;21841;-80
2021/04/10 06:02:53;;;;;;;45.87;14.37;;;;;;;8.21;50.03;98868.53;2217796;80;21439;-79
2021/04/10 06:05:54;;;;;;;22.50;11.90;;;;;;;8.34;49.83;98881.41;2217680;80;21244;-79
2021/04/10 06:08:55;;;;;;;25.20;16.63;;;;;;;8.44;49.38;98877.28;2217609;80;21150;-79
2021/04/10 06:11:56;;;;;;;18.93;12.57;;;;;;;8.63;49.45;98884.61;2217845;80;21248;-80
2021/04/10 06:14:57;;;;;;;27.40;13.07;;;;;;;8.87;49.28;98881.22;2217891;80;21126;-81
2021/04/10 06:17:58;;;;;;;23.70;12.73;;;;;;;9.13;49.19;98880.83;2218052;80;21161;-79
2021/04/10 06:20:59;;;;;;;25.87;12.30;;;;;;;9.38;48.54;98881.70;2218218;80;21130;-81
2021/04/10 06:24:00;;;;;;;19.80;13.03;;;;;;;9.51;47.90;98881.06;2217981;80;21177;-80
2021/04/10 07:01:21;;;;;;;123.28;17.00;;;;;;;11.97;44.98;98870.59;2296501;77;22909;-81
2021/04/10 07:04:22;;;;;;;17.62;9.85;;;;;;;12.19;44.51;98862.91;2259130;79;21355;-80
2021/04/10 07:07:24;;;;;;;16.60;9.70;;;;;;;12.43;43.61;98870.45;2258901;79;21097;-83
2021/04/10 07:10:27;;;;;;;16.70;9.98;;;;;;;12.67;43.18;98870.11;2259365;79;21128;-81
2021/04/10 07:13:29;;;;;;;15.10;10.13;;;;;;;12.92;43.01;98871.06;2259387;79;21077;-79
2021/04/10 07:16:30;;;;;;;28.95;16.80;;;;;;;13.16;42.03;98868.97;2258958;79;21124;-81
2021/04/10 07:19:31;;;;;;;53.00;14.23;;;;;;;13.35;42.56;98871.66;2259296;79;21155;-80
2021/04/10 07:22:32;;;;;;;17.30;9.90;;;;;;;13.57;41.82;98872.55;2259312;78;21132;-81
2021/04/10 07:25:33;;;;;;;19.70;8.23;;;;;;;13.77;41.69;98871.23;2259511;79;21103;-81
2021/04/10 07:28:34;;;;;;;13.48;7.40;;;;;;;13.95;41.05;98867.31;2259295;78;21073;-79
2021/04/10 07:31:37;;;;;;;15.00;9.23;;;;;;;14.13;40.97;98865.53;2259274;79;21101;-81
2021/04/10 07:34:38;;;;;;;11.30;7.78;;;;;;;14.34;40.40;98857.59;2259344;79;21270;-81
2021/04/10 07:37:40;;;;;;;10.88;7.78;;;;;;;14.45;39.88;98857.59;2259548;79;21378;-80
2021/04/10 07:40:43;;;;;;;25.52;6.87;;;;;;;14.63;39.20;98850.52;2259092;79;21163;-81
2021/04/10 07:43:45;;;;;;;11.60;5.97;;;;;;;14.73;38.48;98859.67;2259315;79;21223;-82
2021/04/10 07:46:46;;;;;;;12.47;6.05;;;;;;;14.80;38.07;98857.04;2259733;78;21113;-81
2021/04/10 07:49:47;;;;;;;8.55;5.53;;;;;;;15.00;36.95;98848.17;2259414;79;21115;-80
2021/04/10 07:52:48;;;;;;;11.30;6.05;;;;;;;15.12;36.92;98843.71;2258979;79;21085;-81
2021/04/10 07:55:49;;;;;;;11.65;5.85;;;;;;;15.39;37.43;98847.03;2259359;79;21105;-81
2021/04/10 07:58:50;;;;;;;11.78;6.17;;;;;;;15.61;36.07;98851.31;2259627;79;21160;-82
2021/04/10 08:01:51;;;;;;;24.77;6.78;;;;;;;15.72;35.51;98849.46;2263931;79;21119;-81
2021/04/10 08:04:53;;;;;;;16.67;6.20;;;;;;;15.79;33.99;98852.47;2263349;79;21159;-81
2021/04/10 08:07:54;;;;;;;10.18;6.92;;;;;;;15.86;34.30;98850.20;2263585;79;21235;-81
2021/04/10 08:10:55;;;;;;;14.75;7.20;;;;;;;16.04;34.19;98849.60;2263151;79;21120;-82
2021/04/10 08:13:56;;;;;;;11.48;6.12;;;;;;;16.23;34.79;98851.16;2262458;79;21532;-82
2021/04/10 08:16:57;;;;;;;15.88;6.50;;;;;;;16.37;33.92;98838.70;2263041;79;21378;-82
2021/04/10 08:20:01;;;;;;;14.93;6.75;;;;;;;16.48;33.77;98844.75;2263022;79;21271;-82
2021/04/10 08:23:02;;;;;;;13.08;6.85;;;;;;;16.59;33.46;98845.06;2262861;79;21399;-83
2021/04/10 08:26:03;;;;;;;14.87;6.72;;;;;;;16.68;33.29;98846.30;2262803;79;21137;-83
2021/04/10 08:29:04;;;;;;;12.90;6.67;;;;;;;16.81;33.06;98842.63;2262941;79;21406;-80
2021/04/10 08:32:05;;;;;;;24.43;7.87;;;;;;;16.78;32.78;98842.66;2262907;79;21124;-81
2021/04/10 08:35:06;;;;;;;9.85;6.22;;;;;;;16.79;32.97;98849.23;2262785;79;21128;-82
2021/04/10 08:38:07;;;;;;;16.02;6.78;;;;;;;16.93;32.71;98849.48;2263187;79;21219;-81
2021/04/10 08:41:08;;;;;;;14.60;7.22;;;;;;;17.01;32.28;98845.86;2262733;79;21470;-82
2021/04/10 08:44:10;;;;;;;10.15;6.15;;;;;;;17.12;32.37;98846.58;2263193;79;21242;-81
2021/04/10 08:47:11;;;;;;;11.45;6.30;;;;;;;17.26;31.23;98843.73;2263105;79;21109;-81
2021/04/10 08:50:12;;;;;;;16.95;7.45;;;;;;;17.31;32.20;98844.98;2262811;79;21101;-81
2021/04/10 08:53:13;;;;;;;7.28;6.03;;;;;;;17.39;30.88;98838.73;2262945;79;21093;-82
2021/04/10 08:56:16;;;;;;;11.80;6.20;;;;;;;17.47;31.44;98839.48;2262847;79;21385;-80
2021/04/10 08:59:17;;;;;;;7.67;6.22;;;;;;;17.57;30.91;98844.16;2260023;79;21157;-81
2021/04/10 09:02:18;;;;;;;9.70;6.42;;;;;;;17.75;29.59;98846.97;2244913;79;21089;-80
2021/04/10 09:05:19;;;;;;;10.53;6.70;;;;;;;17.86;30.00;98846.34;2245048;79;21424;-81
2021/04/10 09:08:20;;;;;;;14.15;7.20;;;;;;;17.98;30.28;98847.89;2244726;79;21089;-80
2021/04/10 09:11:21;;;;;;;17.95;7.65;;;;;;;18.16;29.49;98840.95;2245361;79;21129;-81
2021/04/10 09:14:22;;;;;;;9.55;6.65;;;;;;;18.16;30.06;98839.63;2244631;79;21378;-82
2021/04/10 09:17:23;;;;;;;14.20;6.65;;;;;;;18.22;29.50;98843.96;2245006;79;21195;-80
2021/04/10 09:20:24;;;;;;;10.28;6.15;;;;;;;18.29;28.76;98843.81;2244849;79;21152;-79
2021/04/10 09:23:25;;;;;;;8.55;6.00;;;;;;;18.39;29.17;98837.45;2245143;79;21125;-81
2021/04/10 09:26:27;;;;;;;10.90;6.35;;;;;;;18.48;28.90;98838.17;2244359;79;21251;-81
2021/04/10 09:29:28;;;;;;;9.50;6.28;;;;;;;18.53;28.39;98846.42;2244633;79;21117;-82
2021/04/10 09:32:29;;;;;;;17.07;7.28;;;;;;;18.58;28.23;98842.37;2244788;79;21070;-83
2021/04/10 09:35:30;;;;;;;10.65;6.58;;;;;;;18.74;28.70;98849.98;2244407;79;21360;-83
2021/04/10 09:38:31;;;;;;;11.33;6.12;;;;;;;18.80;27.98;98849.44;2244632;79;21141;-81
2021/04/10 09:41:32;;;;;;;9.40;6.53;;;;;;;18.84;28.21;98844.05;2244608;79;21130;-81
2021/04/10 09:44:33;;;;;;;8.48;6.47;;;;;;;18.96;27.95;98846.43;2244355;79;21086;-80
2021/04/10 09:47:34;;;;;;;9.93;6.97;;;;;;;18.96;27.44;98837.17;2244450;79;21427;-79
2021/04/10 09:50:35;;;;;;;13.35;6.72;;;;;;;18.95;28.13;98832.78;2244392;79;21128;-81
2021/04/10 09:53:36;;;;;;;11.78;6.72;;;;;;;19.17;27.08;98842.92;2244500;79;21113;-81
2021/04/10 09:56:37;;;;;;;11.40;7.00;;;;;;;19.13;26.56;98851.83;2244575;79;21125;-82
2021/04/10 09:59:38;;;;;;;10.25;7.10;;;;;;;19.16;27.26;98846.47;2247795;79;21132;-82
2021/04/10 10:02:39;;;;;;;11.35;6.22;;;;;;;19.29;26.51;98842.64;2262750;79;21117;-81
2021/04/10 10:05:40;;;;;;;13.53;6.97;;;;;;;19.47;27.10;98837.36;2262951;79;21127;-81
2021/04/10 10:08:44;;;;;;;9.70;7.47;;;;;;;19.61;26.77;98838.80;2262745;79;21147;-84
2021/04/10 10:11:45;;;;;;;12.05;6.78;;;;;;;19.53;26.87;98836.80;2262721;79;21109;-80
2021/04/10 10:14:46;;;;;;;13.18;6.97;;;;;;;19.41;25.05;98831.76;2262456;79;21156;-83
2021/04/10 10:17:47;;;;;;;16.12;7.20;;;;;;;19.36;26.40;98835.84;2262685;79;21231;-81
2021/04/10 10:20:48;;;;;;;18.77;13.38;;;;;;;19.39;25.62;98835.77;2262576;79;21149;-80
2021/04/10 10:23:49;;;;;;;14.38;9.35;;;;;;;19.50;26.72;98830.67;2262470;79;21136;-80
2021/04/10 10:26:50;;;;;;;10.32;6.97;;;;;;;19.63;26.46;98833.02;2262579;79;21155;-81
2021/04/10 10:29:51;;;;;;;12.93;7.33;;;;;;;19.77;26.64;98833.98;2262659;79;21449;-80
2021/04/10 10:32:52;;;;;;;10.80;6.92;;;;;;;19.92;26.58;98829.63;2262665;79;21509;-81
2021/04/10 10:35:55;;;;;;;9.08;6.85;;;;;;;20.02;26.30;98828.95;2262749;79;21129;-83
2021/04/10 10:38:56;;;;;;;6.60;5.80;;;;;;;20.20;26.70;98831.57;2262636;79;21434;-81
2021/04/10 10:41:57;;;;;;;6.47;5.85;;;;;;;20.25;25.38;98829.20;2261869;79;21143;-81
2021/04/10 10:44:58;;;;;;;9.93;6.35;;;;;;;20.14;24.72;98829.95;2262992;79;21123;-81
2021/04/10 10:47:59;;;;;;;8.40;6.40;;;;;;;20.17;25.89;98827.68;2262440;79;21129;-82
2021/04/10 10:51:01;;;;;;;9.48;6.35;;;;;;;20.30;25.32;98827.30;2262539;79;21093;-82
2021/04/10 10:54:02;;;;;;;12.15;6.15;;;;;;;20.27;23.02;98823.41;2262603;79;21109;-81
2021/04/10 10:57:03;;;;;;;7.95;6.58;;;;;;;20.18;25.04;98822.34;2262488;79;21133;-81
2021/04/10 11:00:04;;;;;;;13.55;7.33;;;;;;;20.22;24.67;98827.09;2258971;79;21239;-82
2021/04/10 11:03:05;;;;;;;11.15;7.05;;;;;;;20.25;24.98;98825.23;2244606;79;21133;-82
2021/04/10 11:06:06;;;;;;;8.93;5.65;;;;;;;20.52;25.06;98829.38;2244715;79;21244;-82
2021/04/10 11:09:07;;;;;;;8.13;5.78;;;;;;;20.55;24.40;98820.02;2244795;79;21371;-81
2021/04/10 11:12:08;;;;;;;11.80;5.72;;;;;;;20.61;24.17;98817.19;2244774;79;21243;-82
2021/04/10 11:15:09;;;;;;;7.42;6.12;;;;;;;20.77;23.27;98820.26;2245603;79;21136;-81
2021/04/10 11:18:10;;;;;;;11.45;6.78;;;;;;;20.82;23.66;98818.37;2244901;79;21129;-81
2021/04/10 11:21:11;;;;;;;11.93;5.80;;;;;;;20.81;23.48;98812.65;2244429;79;21295;-81
2021/04/10 11:24:12;;;;;;;8.00;5.35;;;;;;;20.93;23.96;98822.44;2244350;79;21078;-84
2021/04/10 11:27:13;;;;;;;8.58;6.50;;;;;;;20.82;23.02;98808.62;2244611;79;21117;-83
2021/04/10 11:30:14;;;;;;;10.15;6.15;;;;;;;20.68;23.95;98814.77;2245512;79;21300;-84
2021/04/10 11:33:16;;;;;;;7.83;5.47;;;;;;;20.63;24.07;98817.55;2245523;79;21117;-82
2021/04/10 11:36:17;;;;;;;9.03;5.53;;;;;;;20.50;23.84;98817.95;2244735;79;21132;-81
2021/04/10 11:39:18;;;;;;;7.90;5.42;;;;;;;20.47;24.13;98811.41;2244758;79;21357;-83
2021/04/10 11:42:19;;;;;;;9.95;6.08;;;;;;;20.61;24.30;98809.23;2244960;79;21121;-80
2021/04/10 11:45:20;;;;;;;11.65;5.67;;;;;;;20.58;24.47;98810.19;2245316;79;21157;-81
2021/04/10 11:48:22;;;;;;;9.45;5.10;;;;;;;20.62;23.93;98808.31;2246042;79;21150;-83
2021/04/10 11:51:23;;;;;;;11.48;5.17;;;;;;;20.73;22.80;98805.34;2245814;79;21121;-83
2021/04/10 11:54:24;;;;;;;8.83;5.90;;;;;;;20.78;22.98;98803.42;2245671;79;21132;-83
2021/04/10 11:57:25;;;;;;;11.90;5.83;;;;;;;20.73;23.05;98802.70;2245987;79;21125;-82
2021/04/10 12:00:26;;;;;;;10.68;5.67;;;;;;;20.69;23.43;98797.94;2250436;79;21136;-81
2021/04/10 12:03:27;;;;;;;9.53;4.97;;;;;;;20.54;23.27;98790.43;2264656;79;21112;-81
2021/04/10 12:06:28;;;;;;;10.13;4.83;;;;;;;20.49;22.63;98797.66;2263509;79;21399;-83
2021/04/10 12:09:29;;;;;;;9.33;5.45;;;;;;;20.47;23.03;98799.48;2263728;79;21108;-82
2021/04/10 12:12:30;;;;;;;13.15;4.70;;;;;;;20.52;23.04;98801.54;2263773;79;21116;-81
2021/04/10 12:15:34;;;;;;;28.67;5.30;;;;;;;20.62;23.17;98797.70;2263892;79;21114;-83
2021/04/10 12:18:35;;;;;;;9.58;4.60;;;;;;;20.62;22.64;98791.08;2263770;79;21125;-81
2021/04/10 12:21:36;;;;;;;5.33;4.45;;;;;;;20.77;22.84;98797.25;2263270;79;21231;-81
2021/04/10 12:24:37;;;;;;;6.90;4.20;;;;;;;20.84;21.95;98790.88;2263130;79;21136;-79
2021/04/10 12:27:38;;;;;;;11.08;4.65;;;;;;;21.05;22.48;98781.38;2263379;79;21144;-82
2021/04/10 12:30:39;;;;;;;6.08;4.33;;;;;;;21.26;22.69;98790.48;2263678;79;21471;-81
2021/04/10 12:33:40;;;;;;;6.05;4.08;;;;;;;21.32;21.35;98785.44;2263681;79;21426;-81
2021/04/10 12:36:41;;;;;;;8.48;4.62;;;;;;;21.34;21.72;98785.80;2263956;79;21245;-83
2021/04/10 12:39:42;;;;;;;7.95;5.37;;;;;;;21.36;21.39;98793.25;2262837;79;21128;-82
2021/04/10 12:42:44;;;;;;;7.35;4.22;;;;;;;21.27;21.73;98783.80;2262924;79;21089;-83
2021/04/10 12:45:45;;;;;;;9.10;4.75;;;;;;;21.27;21.91;98783.80;2263808;79;21124;-82
2021/04/10 12:48:46;;;;;;;8.45;5.00;;;;;;;21.03;22.09;98779.23;2263966;79;21247;-82
2021/04/10 12:51:47;;;;;;;6.90;4.72;;;;;;;20.78;22.46;98794.14;2264257;79;21117;-81
2021/04/10 12:54:48;;;;;;;11.20;6.40;;;;;;;20.78;22.53;98787.51;2264724;79;21108;-81
2021/04/10 12:57:49;;;;;;;12.55;5.12;;;;;;;20.68;22.65;98782.94;2264407;79;21127;-83
2021/04/10 13:00:50;;;;;;;7.20;4.55;;;;;;;20.64;22.64;98783.95;2258234;78;21164;-81
2021/04/10 13:03:52;;;;;;;7.97;4.30;;;;;;;20.66;22.74;98790.07;2245621;79;21101;-82
2021/04/10 13:06:53;;;;;;;9.85;4.85;;;;;;;20.71;23.44;98792.59;2244939;79;21140;-83
2021/04/10 13:09:54;;;;;;;9.00;5.42;;;;;;;20.71;22.67;98793.45;2244883;79;21244;-83
2021/04/10 13:12:55;;;;;;;12.95;6.03;;;;;;;20.51;22.57;98786.09;2244515;79;21129;-81
2021/04/10 13:15:59;;;;;;;13.55;5.95;;;;;;;20.67;23.80;98795.79;2244732;79;21152;-83
2021/04/10 13:19:03;;;;;;;8.08;5.25;;;;;;;20.80;21.91;98798.94;2245329;79;21113;-82
2021/04/10 13:22:08;;;;;;;11.75;6.00;;;;;;;20.69;22.82;98793.95;2244822;79;21133;-82
2021/04/10 13:25:12;;;;;;;7.90;5.17;;;;;;;20.90;23.69;98796.45;2244762;79;21117;-83
2021/04/10 13:28:13;;;;;;;10.32;5.30;;;;;;;20.84;22.93;98789.55;2244604;79;21097;-81
2021/04/10 13:31:14;;;;;;;9.20;5.37;;;;;;;20.79;22.83;98788.79;2244571;79;21136;-84
2021/04/10 13:34:15;;;;;;;8.50;5.40;;;;;;;20.75;23.12;98787.60;2245355;79;21128;-82
2021/04/10 13:37:16;;;;;;;9.23;5.80;;;;;;;20.72;23.31;98789.89;2244860;79;21125;-81
2021/04/10 13:40:17;;;;;;;11.88;5.37;;;;;;;20.67;23.64;98786.05;2245287;79;21167;-82
2021/04/10 13:43:18;;;;;;;9.03;6.12;;;;;;;20.57;24.07;98786.36;2245635;79;21411;-82
2021/04/10 13:46:20;;;;;;;12.47;6.12;;;;;;;20.53;23.38;98780.73;2245012;79;21137;-82
2021/04/10 13:49:21;;;;;;;9.45;5.05;;;;;;;20.56;24.46;98784.62;2244946;79;21410;-83
2021/04/10 13:52:22;;;;;;;7.15;5.22;;;;;;;20.59;23.77;98786.73;2245289;79;21105;-82
2021/04/10 13:55:23;;;;;;;14.58;7.20;;;;;;;20.59;23.64;98788.52;2244991;79;21090;-81
2021/04/10 13:58:24;;;;;;;15.05;7.10;;;;;;;20.64;24.32;98782.16;2244897;79;21121;-83
2021/04/10 14:01:27;;;;;;;8.03;6.22;;;;;;;20.84;23.48;98778.94;2244857;79;21144;-82
2021/04/10 14:04:28;;;;;;;7.57;5.83;;;;;;;20.92;23.86;98775.59;2244902;79;21085;-84
2021/04/10 14:07:29;;;;;;;10.40;5.58;;;;;;;20.95;23.69;98774.17;2244821;79;21129;-82
2021/04/10 14:10:30;;;;;;;8.03;5.58;;;;;;;20.79;23.24;98776.85;2244744;79;21124;-81
2021/04/10 14:13:31;;;;;;;9.20;5.45;;;;;;;20.65;24.11;98776.40;2244829;79;21121;-83
2021/04/10 14:16:32;;;;;;;10.95;5.67;;;;;;;20.53;24.07;98781.61;2244574;79;21262;-82
2021/04/10 14:19:33;;;;;;;11.65;5.95;;;;;;;20.38;23.64;98778.05;2244737;79;21161;-82
2021/04/10 14:22:34;;;;;;;8.05;5.80;;;;;;;20.23;24.61;98775.83;2244903;79;21129;-83
2021/04/10 14:25:35;;;;;;;9.95;5.12;;;;;;;20.25;24.23;98773.55;2244546;79;21129;-81
2021/04/10 14:28:36;;;;;;;9.80;5.60;;;;;;;20.26;24.60;98772.64;2244827;79;21093;-82
2021/04/10 14:31:37;;;;;;;9.23;5.67;;;;;;;20.24;24.91;98774.46;2244767;79;21149;-81
2021/04/10 14:34:38;;;;;;;8.13;5.30;;;;;;;20.22;24.66;98773.64;2244735;79;21093;-82
2021/04/10 14:37:39;;;;;;;12.03;5.53;;;;;;;20.23;24.65;98774.05;2244918;79;21117;-81